Time;durP1;ratioP1;P1;durP2;ratioP2;P2;SDS_P1;SDS_P2;PMS_P1;PMS_P2;Temp;Humidity;BMP_temperature;BMP_pressure;BME280_temperature;BME280_humidity;BME280_pressure;Samples;Min_cycle;Max_cycle;Signal;HPM_P1;HPM_P2
2022/08/05 00:01:44;;;;;;;4.07;3.20;;;;;;;;;;5091697;28;20940;-80
2022/08/05 00:04:11;;;;;;;4.20;2.63;;;;;;;;;;5093243;28;20443;-77
2022/08/05 00:06:39;;;;;;;3.97;3.07;;;;;;;;;;5092642;28;20487;-79
2022/08/05 00:09:06;;;;;;;6.43;3.00;;;;;;;;;;5094889;28;20439;-80
2022/08/05 00:11:33;;;;;;;4.60;3.67;;;;;;;;;;5094986;28;20530;-78
2022/08/05 00:14:00;;;;;;;4.60;3.20;;;;;;;;;;5088463;28;20434;-79
2022/08/05 00:16:29;;;;;;;3.83;3.43;;;;;;;;;;5088708;28;20542;-81
2022/08/05 00:18:56;;;;;;;4.00;3.40;;;;;;;;;;5091848;28;20542;-82
2022/08/05 00:21:23;;;;;;;3.73;3.37;;;;;;;;;;5092724;28;20443;-81
2022/08/05 00:23:51;;;;;;;4.27;3.40;;;;;;;;;;5092386;28;20538;-80
2022/08/05 00:26:19;;;;;;;3.90;3.50;;;;;;;;;;5092942;28;20954;-80
2022/08/05 00:28:46;;;;;;;5.33;4.00;;;;;;;;;;5092278;28;20847;-79
2022/08/05 00:31:13;;;;;;;6.43;3.37;;;;;;;;;;5094575;28;20450;-79
2022/08/05 00:33:42;;;;;;;4.00;3.60;;;;;;;;;;5094098;28;20787;-80
2022/08/05 00:36:09;;;;;;;4.70;3.43;;;;;;;;;;5088372;28;20443;-77
2022/08/05 00:38:38;;;;;;;6.13;3.53;;;;;;;;;;5088403;28;20450;-79
2022/08/05 00:41:06;;;;;;;7.63;4.00;;;;;;;;;;5091493;28;20447;-79
2022/08/05 00:43:34;;;;;;;3.60;3.30;;;;;;;;;;5091860;28;20538;-78
2022/08/05 00:46:01;;;;;;;4.37;3.97;;;;;;;;;;5092046;28;20936;-80
2022/08/05 00:48:28;;;;;;;4.27;3.40;;;;;;;;;;5092504;28;20798;-78
2022/08/05 00:50:57;;;;;;;4.40;3.63;;;;;;;;;;5092076;28;20459;-77
2022/08/05 00:53:24;;;;;;;4.90;3.80;;;;;;;;;;5094129;28;20537;-80
2022/08/05 00:55:51;;;;;;;5.30;3.47;;;;;;;;;;5094178;28;20462;-80
2022/08/05 00:58:19;;;;;;;3.97;3.03;;;;;;;;;;5088033;28;20432;-78
2022/08/05 01:00:46;;;;;;;4.90;2.90;;;;;;;;;;5087845;28;20777;-79
2022/08/05 01:03:14;;;;;;;6.43;3.87;;;;;;;;;;5070948;28;20930;-79
2022/08/05 01:05:41;;;;;;;4.17;3.23;;;;;;;;;;5071320;28;20801;-80
2022/08/05 01:08:10;;;;;;;8.80;3.80;;;;;;;;;;5071600;28;20484;-80
2022/08/05 01:10:41;;;;;;;5.53;3.60;;;;;;;;;;5072064;28;20438;-79
2022/08/05 01:13:13;;;;;;;3.70;3.30;;;;;;;;;;5075143;28;20455;-78
2022/08/05 01:15:43;;;;;;;3.77;3.47;;;;;;;;;;5093720;28;20804;-79
2022/08/05 01:18:14;;;;;;;4.80;3.20;;;;;;;;;;5093939;28;20450;-80
2022/08/05 01:20:46;;;;;;;5.83;3.60;;;;;;;;;;5086315;28;20502;-79
2022/08/05 01:23:20;;;;;;;4.57;3.53;;;;;;;;;;5088046;28;20434;-79
2022/08/05 01:25:54;;;;;;;3.20;2.90;;;;;;;;;;5090489;28;20467;-80
2022/08/05 01:28:27;;;;;;;4.57;3.70;;;;;;;;;;5090992;28;20471;-80
2022/08/05 01:30:57;;;;;;;3.67;3.00;;;;;;;;;;5091846;28;20439;-79
2022/08/05 01:33:28;;;;;;;5.03;3.90;;;;;;;;;;5091985;28;20443;-79
2022/08/05 01:35:56;;;;;;;4.93;3.50;;;;;;;;;;5091776;28;20481;-77
2022/08/05 01:38:25;;;;;;;5.00;3.37;;;;;;;;;;5092482;28;20465;-78
2022/08/05 01:40:53;;;;;;;8.03;3.70;;;;;;;;;;5092575;28;20442;-77
2022/08/05 01:43:21;;;;;;;5.70;3.60;;;;;;;;;;5087485;28;20424;-79
2022/08/05 01:45:50;;;;;;;6.07;3.93;;;;;;;;;;5088900;28;20504;-78
2022/08/05 01:48:18;;;;;;;7.03;4.47;;;;;;;;;;5095061;28;20474;-78
2022/08/05 01:50:45;;;;;;;9.13;4.63;;;;;;;;;;5095079;28;20920;-79
2022/08/05 01:53:13;;;;;;;7.47;4.10;;;;;;;;;;5095402;28;20861;-79
2022/08/05 01:55:43;;;;;;;8.47;4.23;;;;;;;;;;5095508;28;20940;-80
2022/08/05 01:58:11;;;;;;;4.70;4.00;;;;;;;;;;5095835;28;20995;-79
2022/08/05 02:00:40;;;;;;;6.67;3.70;;;;;;;;;;5097307;28;20439;-80
2022/08/05 02:03:11;;;;;;;6.53;3.77;;;;;;;;;;5095246;28;20463;-78
2022/08/05 02:05:39;;;;;;;4.80;4.07;;;;;;;;;;5090611;28;20947;-80
2022/08/05 02:08:06;;;;;;;6.40;4.90;;;;;;;;;;5091915;28;20574;-79
2022/08/05 02:10:35;;;;;;;5.80;4.00;;;;;;;;;;5094601;28;20440;-78
2022/08/05 02:13:06;;;;;;;7.20;5.10;;;;;;;;;;5094756;28;20950;-79
2022/08/05 02:15:36;;;;;;;9.20;5.60;;;;;;;;;;5095065;28;20445;-78
2022/08/05 02:18:04;;;;;;;8.83;4.70;;;;;;;;;;5094116;28;20551;-79
2022/08/05 02:20:38;;;;;;;9.77;6.37;;;;;;;;;;5093941;28;21007;-79
2022/08/05 02:23:08;;;;;;;6.93;6.00;;;;;;;;;;5097058;28;20438;-79
2022/08/05 02:25:36;;;;;;;12.00;8.20;;;;;;;;;;5095100;28;20543;-80
2022/08/05 02:28:04;;;;;;;12.57;8.30;;;;;;;;;;5090129;28;20493;-77
2022/08/05 02:30:35;;;;;;;10.43;8.60;;;;;;;;;;5091422;28;20792;-77
2022/08/05 02:33:03;;;;;;;12.57;8.80;;;;;;;;;;5094633;28;20819;-78
2022/08/05 02:35:33;;;;;;;16.87;9.33;;;;;;;;;;5094433;28;21006;-79
2022/08/05 02:38:02;;;;;;;15.60;10.80;;;;;;;;;;5094496;28;20463;-78
2022/08/05 02:40:30;;;;;;;17.10;11.17;;;;;;;;;;5095033;28;20793;-80
2022/08/05 02:42:57;;;;;;;13.60;11.43;;;;;;;;;;5094739;28;20791;-79
2022/08/05 02:45:25;;;;;;;17.73;12.70;;;;;;;;;;5096893;28;20443;-77
2022/08/05 02:47:54;;;;;;;15.33;12.30;;;;;;;;;;5094949;28;20479;-80
2022/08/05 02:50:22;;;;;;;15.30;13.17;;;;;;;;;;5090081;28;20438;-79
2022/08/05 02:52:50;;;;;;;14.40;11.93;;;;;;;;;;5090886;28;20544;-84
2022/08/05 02:55:18;;;;;;;21.40;14.47;;;;;;;;;;5093996;28;20879;-80
2022/08/05 02:57:46;;;;;;;18.50;13.73;;;;;;;;;;5093265;28;20434;-78
2022/08/05 03:00:13;;;;;;;18.47;14.33;;;;;;;;;;5094216;28;20445;-80
2022/08/05 03:02:42;;;;;;;18.20;14.20;;;;;;;;;;5094519;28;20409;-79
2022/08/05 03:05:10;;;;;;;21.47;16.10;;;;;;;;;;5094483;28;20451;-76
2022/08/05 03:07:39;;;;;;;18.93;14.40;;;;;;;;;;5096165;28;20566;-81
2022/08/05 03:10:06;;;;;;;17.60;14.83;;;;;;;;;;5094759;28;20410;-78
2022/08/05 03:12:36;;;;;;;19.50;15.63;;;;;;;;;;5089510;28;20438;-78
2022/08/05 03:15:04;;;;;;;17.67;15.20;;;;;;;;;;5089249;28;20492;-77
2022/08/05 03:17:31;;;;;;;20.27;16.87;;;;;;;;;;5093710;28;20803;-78
2022/08/05 03:19:58;;;;;;;24.27;16.93;;;;;;;;;;5093584;28;20410;-79
2022/08/05 03:22:25;;;;;;;24.70;17.43;;;;;;;;;;5093780;28;20820;-79
2022/08/05 03:24:53;;;;;;;25.13;17.80;;;;;;;;;;5093588;28;20440;-77
2022/08/05 03:27:20;;;;;;;20.77;17.20;;;;;;;;;;5092783;28;20485;-80
2022/08/05 03:29:49;;;;;;;27.47;17.17;;;;;;;;;;5095816;28;20442;-78
2022/08/05 03:32:18;;;;;;;22.67;17.07;;;;;;;;;;5094475;28;20442;-77
2022/08/05 03:34:45;;;;;;;22.40;16.80;;;;;;;;;;5088014;28;20435;-81
2022/08/05 03:37:13;;;;;;;26.00;16.83;;;;;;;;;;5090048;28;20551;-76
2022/08/05 03:39:52;;;;;;;20.00;16.23;;;;;;;;;;5093080;28;20500;-76
2022/08/05 03:42:19;;;;;;;22.00;16.60;;;;;;;;;;5094259;28;20736;-78
2022/08/05 03:44:46;;;;;;;25.13;19.90;;;;;;;;;;5094864;28;20535;-82
2022/08/05 03:47:14;;;;;;;22.10;18.73;;;;;;;;;;5093906;28;20487;-81
2022/08/05 03:49:42;;;;;;;26.30;18.47;;;;;;;;;;5094494;28;20439;-79
2022/08/05 03:52:11;;;;;;;29.03;19.03;;;;;;;;;;5095847;28;20899;-83
2022/08/05 03:54:44;;;;;;;25.97;18.80;;;;;;;;;;5092685;28;20514;-81
2022/08/05 03:57:12;;;;;;;22.27;18.50;;;;;;;;;;5089675;28;20459;-79
2022/08/05 03:59:42;;;;;;;22.30;18.50;;;;;;;;;;5089307;28;20427;-82
2022/08/05 04:02:11;;;;;;;22.90;19.70;;;;;;;;;;5094086;28;20790;-81
2022/08/05 04:04:40;;;;;;;25.50;20.37;;;;;;;;;;5094769;28;20447;-84
2022/08/05 04:07:07;;;;;;;26.87;19.63;;;;;;;;;;5093714;28;20459;-80
2022/08/05 04:09:35;;;;;;;26.93;19.50;;;;;;;;;;5093343;28;20615;-77
2022/08/05 04:12:02;;;;;;;28.17;19.50;;;;;;;;;;5093907;28;20451;-80
2022/08/05 04:14:30;;;;;;;27.20;22.20;;;;;;;;;;5095271;28;20807;-81
2022/08/05 04:16:57;;;;;;;29.03;22.00;;;;;;;;;;5093145;28;20463;-80
2022/08/05 04:19:24;;;;;;;28.73;22.27;;;;;;;;;;5088644;28;20457;-87
2022/08/05 04:21:53;;;;;;;30.60;23.03;;;;;;;;;;5089512;28;20434;-79
2022/08/05 04:24:20;;;;;;;28.00;21.90;;;;;;;;;;5092549;28;20471;-81
2022/08/05 04:26:47;;;;;;;33.17;22.67;;;;;;;;;;5092335;28;20467;-80
2022/08/05 04:29:14;;;;;;;30.77;22.47;;;;;;;;;;5092306;28;20569;-80
2022/08/05 04:31:42;;;;;;;28.97;22.90;;;;;;;;;;5092924;28;20435;-86
2022/08/05 04:34:09;;;;;;;31.53;23.27;;;;;;;;;;5092820;28;20513;-77
2022/08/05 04:36:37;;;;;;;30.73;23.40;;;;;;;;;;5094491;28;20451;-80
2022/08/05 04:39:05;;;;;;;35.00;24.77;;;;;;;;;;5092963;28;20446;-83
2022/08/05 04:41:32;;;;;;;34.43;22.93;;;;;;;;;;5088154;28;20442;-80
2022/08/05 04:44:00;;;;;;;35.00;23.97;;;;;;;;;;5089060;28;20749;-83
2022/08/05 04:46:27;;;;;;;29.10;22.73;;;;;;;;;;5092106;28;20455;-81
2022/08/05 04:48:54;;;;;;;34.60;25.50;;;;;;;;;;5092420;28;20584;-81
2022/08/05 04:51:21;;;;;;;32.80;24.17;;;;;;;;;;5092324;28;20804;-83
2022/08/05 04:53:48;;;;;;;36.43;26.23;;;;;;;;;;5092537;28;20451;-83
2022/08/05 04:56:17;;;;;;;36.70;25.20;;;;;;;;;;5092242;28;20475;-82
2022/08/05 04:58:44;;;;;;;33.53;24.83;;;;;;;;;;5094096;28;20835;-81
2022/08/05 05:01:12;;;;;;;38.33;26.87;;;;;;;;;;5092808;28;20442;-78
2022/08/05 05:03:39;;;;;;;34.00;24.50;;;;;;;;;;5088032;28;20438;-80
2022/08/05 05:06:06;;;;;;;32.10;24.60;;;;;;;;;;5088473;28;20455;-77
2022/08/05 05:08:33;;;;;;;32.50;25.57;;;;;;;;;;5091596;28;20471;-80
2022/08/05 05:11:00;;;;;;;30.87;25.17;;;;;;;;;;5091421;28;20959;-78
2022/08/05 05:13:29;;;;;;;36.00;25.33;;;;;;;;;;5092025;28;20431;-85
2022/08/05 05:15:56;;;;;;;34.00;26.23;;;;;;;;;;5092326;28;20534;-78
2022/08/05 05:18:23;;;;;;;30.20;24.47;;;;;;;;;;5092144;28;20462;-84
2022/08/05 05:20:51;;;;;;;36.10;30.00;;;;;;;;;;5093634;28;20432;-79
2022/08/05 05:23:18;;;;;;;40.30;33.10;;;;;;;;;;5092357;28;20431;-82
2022/08/05 05:25:45;;;;;;;40.67;30.90;;;;;;;;;;5086575;28;20462;-78
2022/08/05 05:28:13;;;;;;;43.20;32.37;;;;;;;;;;5088236;28;20487;-82
2022/08/05 05:30:41;;;;;;;43.73;33.87;;;;;;;;;;5091212;28;20538;-81
2022/08/05 05:33:09;;;;;;;47.10;32.77;;;;;;;;;;5091012;28;20435;-81
2022/08/05 05:35:36;;;;;;;40.37;32.57;;;;;;;;;;5090329;28;20803;-80
2022/08/05 05:38:05;;;;;;;45.53;34.27;;;;;;;;;;5091379;28;20703;-87
2022/08/05 05:40:38;;;;;;;46.70;32.57;;;;;;;;;;5091624;28;20502;-81
2022/08/05 05:43:05;;;;;;;45.40;34.43;;;;;;;;;;5087992;28;20759;-81
2022/08/05 05:45:32;;;;;;;43.33;32.30;;;;;;;;;;5087489;28;20394;-80
2022/08/05 05:48:01;;;;;;;42.03;33.20;;;;;;;;;;5090358;28;20472;-82
2022/08/05 05:50:28;;;;;;;48.17;37.07;;;;;;;;;;5090959;28;20414;-77
2022/08/05 05:52:55;;;;;;;52.63;39.27;;;;;;;;;;5091566;28;20782;-82
2022/08/05 05:55:22;;;;;;;46.13;38.33;;;;;;;;;;5091918;28;20807;-80
2022/08/05 05:57:49;;;;;;;44.87;36.70;;;;;;;;;;5090874;28;20476;-79
2022/08/05 06:00:18;;;;;;;45.70;37.20;;;;;;;;;;5093520;28;20531;-79
2022/08/05 06:02:46;;;;;;;47.30;36.83;;;;;;;;;;5085207;28;20452;-80
2022/08/05 06:05:15;;;;;;;54.83;39.87;;;;;;;;;;5087519;28;20458;-76
2022/08/05 06:07:43;;;;;;;52.00;39.10;;;;;;;;;;5085761;28;20448;-79
2022/08/05 06:10:11;;;;;;;61.77;42.20;;;;;;;;;;5090112;28;20442;-81
2022/08/05 06:12:38;;;;;;;61.70;41.53;;;;;;;;;;5090978;28;20442;-78
2022/08/05 06:15:07;;;;;;;65.90;44.50;;;;;;;;;;5091128;28;20442;-81
2022/08/05 06:17:34;;;;;;;79.43;48.47;;;;;;;;;;5091454;28;20458;-78
2022/08/05 06:20:01;;;;;;;79.33;48.50;;;;;;;;;;5090679;28;20447;-79
2022/08/05 06:22:31;;;;;;;81.53;47.03;;;;;;;;;;5093374;28;20547;-78
2022/08/05 06:24:58;;;;;;;88.03;47.97;;;;;;;;;;5092910;28;20451;-77
2022/08/05 06:27:25;;;;;;;72.23;45.97;;;;;;;;;;5088410;28;20451;-79
2022/08/05 06:29:53;;;;;;;75.93;46.70;;;;;;;;;;5086667;28;20453;-76
2022/08/05 06:32:20;;;;;;;74.40;45.97;;;;;;;;;;5090198;28;20956;-78
2022/08/05 06:34:47;;;;;;;78.13;44.60;;;;;;;;;;5093452;28;20558;-79
2022/08/05 06:37:15;;;;;;;75.63;44.47;;;;;;;;;;5094688;28;20455;-78
2022/08/05 06:39:44;;;;;;;73.80;46.00;;;;;;;;;;5095150;28;20435;-77
2022/08/05 06:42:12;;;;;;;81.07;46.80;;;;;;;;;;5094666;28;20515;-76
2022/08/05 06:44:39;;;;;;;78.03;47.10;;;;;;;;;;5095552;28;20447;-76
2022/08/05 06:47:07;;;;;;;67.07;45.83;;;;;;;;;;5096478;28;20468;-78
2022/08/05 06:49:34;;;;;;;77.00;45.10;;;;;;;;;;5093392;28;20485;-79
2022/08/05 06:52:01;;;;;;;74.80;42.57;;;;;;;;;;5090278;28;20432;-79
2022/08/05 06:54:28;;;;;;;76.63;44.90;;;;;;;;;;5091848;28;20963;-82
2022/08/05 06:56:57;;;;;;;63.47;41.90;;;;;;;;;;5093993;28;20469;-82
2022/08/05 06:59:24;;;;;;;74.27;43.57;;;;;;;;;;5093876;28;20454;-77
2022/08/05 07:01:51;;;;;;;62.63;40.33;;;;;;;;;;5094342;28;20930;-78
2022/08/05 07:04:18;;;;;;;69.53;42.73;;;;;;;;;;5094500;28;20470;-80
2022/08/05 07:06:46;;;;;;;68.73;44.73;;;;;;;;;;5094773;28;20479;-80
2022/08/05 07:09:13;;;;;;;78.43;45.87;;;;;;;;;;5096228;28;20475;-80
2022/08/05 07:11:40;;;;;;;74.20;46.50;;;;;;;;;;5092810;28;20434;-79
2022/08/05 07:16:50;;;;;;;79.70;45.47;;;;;;;;;;5091499;28;20512;-79
2022/08/05 07:19:17;;;;;;;65.83;42.47;;;;;;;;;;5093691;28;20500;-78
2022/08/05 07:21:44;;;;;;;70.37;42.20;;;;;;;;;;5093709;28;20439;-79
2022/08/05 07:24:12;;;;;;;68.60;43.50;;;;;;;;;;5094083;28;20467;-79
2022/08/05 07:26:39;;;;;;;63.97;42.97;;;;;;;;;;5093713;28;20816;-80
2022/08/05 07:29:06;;;;;;;67.43;43.67;;;;;;;;;;5094569;28;20487;-80
2022/08/05 07:31:35;;;;;;;65.27;43.23;;;;;;;;;;5095724;28;20526;-77
2022/08/05 07:34:02;;;;;;;64.90;44.87;;;;;;;;;;5092768;28;20511;-78
2022/08/05 07:36:32;;;;;;;72.17;45.50;;;;;;;;;;5089160;28;20774;-80
2022/08/05 07:39:00;;;;;;;68.13;45.73;;;;;;;;;;5089628;28;20439;-77
2022/08/05 07:41:27;;;;;;;64.97;45.40;;;;;;;;;;5092171;28;20471;-79
2022/08/05 07:43:55;;;;;;;63.13;45.20;;;;;;;;;;5093309;28;20443;-79
2022/08/05 07:46:22;;;;;;;68.97;45.90;;;;;;;;;;5093264;28;20467;-78
2022/08/05 07:48:51;;;;;;;57.87;40.47;;;;;;;;;;5092419;28;20554;-76
2022/08/05 07:51:18;;;;;;;62.20;43.37;;;;;;;;;;5093875;28;20966;-79
2022/08/05 07:53:45;;;;;;;61.33;42.90;;;;;;;;;;5095366;28;20530;-81
2022/08/05 07:56:12;;;;;;;60.90;43.50;;;;;;;;;;5093430;28;20444;-78
2022/08/05 07:58:39;;;;;;;58.17;41.57;;;;;;;;;;5088865;28;20457;-76
2022/08/05 08:01:07;;;;;;;62.00;42.60;;;;;;;;;;5089684;28;20795;-81
2022/08/05 08:03:34;;;;;;;57.97;43.50;;;;;;;;;;5092687;28;20667;-79
2022/08/05 08:06:03;;;;;;;60.13;41.30;;;;;;;;;;5092607;28;20464;-79
2022/08/05 08:08:33;;;;;;;56.17;40.00;;;;;;;;;;5092867;28;20941;-80
2022/08/05 08:11:00;;;;;;;49.77;37.27;;;;;;;;;;5093562;28;20432;-78
2022/08/05 08:13:27;;;;;;;44.37;32.10;;;;;;;;;;5093109;28;20459;-78
2022/08/05 08:15:54;;;;;;;39.53;31.53;;;;;;;;;;5095117;28;20446;-78
2022/08/05 08:18:21;;;;;;;40.93;32.03;;;;;;;;;;5094374;28;20517;-77
2022/08/05 08:20:50;;;;;;;37.63;30.13;;;;;;;;;;5088320;28;20434;-76
2022/08/05 08:23:18;;;;;;;37.50;30.47;;;;;;;;;;5089429;28;20424;-76
2022/08/05 08:25:46;;;;;;;36.60;29.90;;;;;;;;;;5090181;28;20468;-76
2022/08/05 08:28:13;;;;;;;41.80;32.03;;;;;;;;;;5092226;28;20467;-81
2022/08/05 08:30:40;;;;;;;38.77;31.10;;;;;;;;;;5092460;28;20540;-80
2022/08/05 08:33:08;;;;;;;43.37;35.07;;;;;;;;;;5092467;28;20538;-77
2022/08/05 08:35:35;;;;;;;45.60;37.67;;;;;;;;;;5092400;28;20538;-79
2022/08/05 08:38:02;;;;;;;46.90;38.07;;;;;;;;;;5094251;28;20532;-79
2022/08/05 08:40:33;;;;;;;51.70;39.50;;;;;;;;;;5094656;28;20443;-78
2022/08/05 08:43:01;;;;;;;52.10;40.13;;;;;;;;;;5087886;28;20427;-81
2022/08/05 08:45:28;;;;;;;44.73;38.13;;;;;;;;;;5087861;28;20432;-80
2022/08/05 08:47:56;;;;;;;51.60;41.10;;;;;;;;;;5090514;28;20891;-81
2022/08/05 08:50:24;;;;;;;47.27;39.57;;;;;;;;;;5091746;28;21230;-81
2022/08/05 08:52:53;;;;;;;50.10;37.93;;;;;;;;;;5091902;28;20442;-77
2022/08/05 08:55:21;;;;;;;50.33;40.00;;;;;;;;;;5091899;28;20521;-77
2022/08/05 08:57:49;;;;;;;50.67;41.20;;;;;;;;;;5091206;28;20491;-81
2022/08/05 09:00:17;;;;;;;49.00;39.20;;;;;;;;;;5090128;28;20954;-77
2022/08/05 09:02:45;;;;;;;47.87;38.87;;;;;;;;;;5087704;28;21051;-78
2022/08/05 09:05:13;;;;;;;47.23;38.70;;;;;;;;;;5088567;28;20437;-81
2022/08/05 09:07:40;;;;;;;47.03;38.33;;;;;;;;;;5091710;28;20463;-79
2022/08/05 09:10:08;;;;;;;38.87;32.30;;;;;;;;;;5091715;28;20475;-82
2022/08/05 09:12:35;;;;;;;36.67;32.43;;;;;;;;;;5091807;28;20454;-78
2022/08/05 09:15:04;;;;;;;35.07;31.37;;;;;;;;;;5092089;28;20805;-79
2022/08/05 09:17:32;;;;;;;40.37;32.67;;;;;;;;;;5092759;28;20471;-80
2022/08/05 09:20:00;;;;;;;32.50;28.97;;;;;;;;;;5093635;28;21006;-83
2022/08/05 09:22:27;;;;;;;28.90;25.87;;;;;;;;;;5091603;28;20500;-81
2022/08/05 09:25:00;;;;;;;29.03;26.03;;;;;;;;;;5085772;28;20828;-79
2022/08/05 09:27:31;;;;;;;25.87;23.10;;;;;;;;;;5088590;28;20542;-81
2022/08/05 09:29:59;;;;;;;26.50;22.60;;;;;;;;;;5090139;28;20479;-78
2022/08/05 09:32:36;;;;;;;23.03;20.47;;;;;;;;;;5091479;28;20431;-76
2022/08/05 09:35:13;;;;;;;20.97;18.73;;;;;;;;;;5090413;28;20442;-80
2022/08/05 09:37:49;;;;;;;22.40;18.83;;;;;;;;;;5090517;28;20512;-80
2022/08/05 09:40:29;;;;;;;19.27;17.33;;;;;;;;;;5091414;28;20861;-80
2022/08/05 09:42:57;;;;;;;20.67;18.60;;;;;;;;;;5093687;28;20534;-78
2022/08/05 09:45:34;;;;;;;21.63;19.50;;;;;;;;;;5090562;28;20998;-79
2022/08/05 09:48:19;;;;;;;19.50;17.60;;;;;;;;;;5087019;28;20546;-78
2022/08/05 09:50:50;;;;;;;17.67;16.07;;;;;;;;;;5089400;28;20485;-83
2022/08/05 09:53:17;;;;;;;16.37;14.77;;;;;;;;;;5091127;28;20462;-77
2022/08/05 09:55:44;;;;;;;14.33;12.97;;;;;;;;;;5091236;28;20812;-79
2022/08/05 09:58:12;;;;;;;16.60;15.10;;;;;;;;;;5090346;28;20435;-78
2022/08/05 10:00:39;;;;;;;15.87;14.47;;;;;;;;;;5091004;28;20440;-81
2022/08/05 10:03:11;;;;;;;14.07;12.77;;;;;;;;;;5092436;28;20459;-79
2022/08/05 10:05:40;;;;;;;14.20;12.80;;;;;;;;;;5092219;28;20443;-82
2022/08/05 10:08:07;;;;;;;14.67;13.37;;;;;;;;;;5092650;28;20481;-80
2022/08/05 10:10:37;;;;;;;14.37;13.10;;;;;;;;;;5090906;28;20470;-81
2022/08/05 10:13:05;;;;;;;14.17;12.87;;;;;;;;;;5092892;28;20457;-80
2022/08/05 10:15:34;;;;;;;13.27;12.17;;;;;;;;;;5095069;28;20435;-79
2022/08/05 10:18:06;;;;;;;12.47;11.30;;;;;;;;;;5094869;28;20459;-79
2022/08/05 10:20:35;;;;;;;13.60;12.33;;;;;;;;;;5095126;28;20439;-78
2022/08/05 10:23:03;;;;;;;12.50;11.30;;;;;;;;;;5093863;28;20534;-80
2022/08/05 10:25:30;;;;;;;12.23;11.03;;;;;;;;;;5095547;28;20463;-80
2022/08/05 10:27:58;;;;;;;14.23;12.83;;;;;;;;;;5096948;28;20537;-80
2022/08/05 10:30:25;;;;;;;13.00;11.80;;;;;;;;;;5094058;28;20479;-81
2022/08/05 10:32:53;;;;;;;12.93;11.37;;;;;;;;;;5090790;28;20424;-78
2022/08/05 10:35:20;;;;;;;10.70;9.80;;;;;;;;;;5092217;28;20449;-79
2022/08/05 10:37:49;;;;;;;12.00;10.90;;;;;;;;;;5094377;28;20569;-80
2022/08/05 10:40:19;;;;;;;9.77;8.93;;;;;;;;;;5094107;28;20451;-77
2022/08/05 10:42:48;;;;;;;10.10;9.17;;;;;;;;;;5093412;28;20485;-79
2022/08/05 10:45:16;;;;;;;9.73;8.93;;;;;;;;;;5094739;28;20955;-76
2022/08/05 10:47:45;;;;;;;10.27;9.30;;;;;;;;;;5094972;28;20513;-78
2022/08/05 10:50:16;;;;;;;9.20;8.40;;;;;;;;;;5096281;28;20475;-82
2022/08/05 10:52:46;;;;;;;8.13;7.20;;;;;;;;;;5094077;28;20532;-78
2022/08/05 10:55:16;;;;;;;11.30;7.53;;;;;;;;;;5089081;28;20532;-79
2022/08/05 10:57:44;;;;;;;10.23;6.53;;;;;;;;;;5091120;28;20805;-81
2022/08/05 11:00:13;;;;;;;8.07;5.23;;;;;;;;;;5093999;28;20443;-78
2022/08/05 11:02:55;;;;;;;6.70;5.37;;;;;;;;;;5093946;28;20450;-79
2022/08/05 11:05:23;;;;;;;9.20;5.93;;;;;;;;;;5092792;28;20542;-79
2022/08/05 11:07:57;;;;;;;6.13;4.73;;;;;;;;;;5094433;28;20465;-78
2022/08/05 11:10:27;;;;;;;4.60;4.20;;;;;;;;;;5094711;28;20489;-84
2022/08/05 11:12:55;;;;;;;7.17;4.40;;;;;;;;;;5094747;28;20530;-77
2022/08/05 11:15:24;;;;;;;9.33;4.73;;;;;;;;;;5093451;28;20917;-81
2022/08/05 11:17:52;;;;;;;5.90;4.00;;;;;;;;;;5088715;28;20924;-79
2022/08/05 11:20:36;;;;;;;5.10;4.60;;;;;;;;;;5091188;28;20831;-80
2022/08/05 11:23:24;;;;;;;6.17;5.40;;;;;;;;;;5093345;28;20435;-80
2022/08/05 11:26:02;;;;;;;5.80;3.67;;;;;;;;;;5092275;28;20563;-79
2022/08/05 11:28:44;;;;;;;6.97;4.73;;;;;;;;;;5094282;28;20522;-78
2022/08/05 11:31:29;;;;;;;6.23;4.83;;;;;;;;;;5091823;28;20555;-77
2022/08/05 11:33:58;;;;;;;5.83;4.27;;;;;;;;;;5074349;28;20478;-80
2022/08/05 11:36:40;;;;;;;7.70;5.20;;;;;;;;;;5075078;28;20554;-80
2022/08/05 11:39:07;;;;;;;10.33;5.40;;;;;;;;;;5086509;28;22416;-78
2022/08/05 11:41:36;;;;;;;5.33;4.80;;;;;;;;;;5089173;28;20434;-80
2022/08/05 11:44:05;;;;;;;8.93;5.27;;;;;;;;;;5092546;28;20443;-77
2022/08/05 11:46:34;;;;;;;5.27;4.10;;;;;;;;;;5091756;28;20495;-80
2022/08/05 11:49:02;;;;;;;6.30;3.73;;;;;;;;;;5091838;28;20436;-80
2022/08/05 11:51:30;;;;;;;5.13;3.67;;;;;;;;;;5093697;28;20572;-80
2022/08/05 11:53:59;;;;;;;5.23;4.13;;;;;;;;;;5092851;28;20457;-80
2022/08/05 11:56:27;;;;;;;4.37;3.50;;;;;;;;;;5093817;28;20980;-79
2022/08/05 11:58:55;;;;;;;5.40;3.53;;;;;;;;;;5094999;28;20863;-78
2022/08/05 12:01:23;;;;;;;4.80;3.33;;;;;;;;;;5089461;28;20434;-79
2022/08/05 12:03:53;;;;;;;5.53;3.07;;;;;;;;;;5088786;28;20443;-81
2022/08/05 12:06:21;;;;;;;7.53;3.30;;;;;;;;;;5091923;28;20451;-80
2022/08/05 12:08:50;;;;;;;7.03;3.40;;;;;;;;;;5092608;28;20458;-81
2022/08/05 12:11:18;;;;;;;3.43;2.97;;;;;;;;;;5092549;28;21066;-81
2022/08/05 12:13:54;;;;;;;3.90;2.93;;;;;;;;;;5091872;28;20510;-79
2022/08/05 12:16:23;;;;;;;3.50;2.87;;;;;;;;;;5091209;28;20899;-79
2022/08/05 12:18:50;;;;;;;3.67;2.60;;;;;;;;;;5094790;28;20443;-79
2022/08/05 12:21:19;;;;;;;3.90;2.97;;;;;;;;;;5095339;28;20447;-81
2022/08/05 12:23:54;;;;;;;5.07;2.50;;;;;;;;;;5089327;28;20446;-81
2022/08/05 12:26:21;;;;;;;3.83;2.50;;;;;;;;;;5088382;28;20443;-80
2022/08/05 12:28:48;;;;;;;4.13;2.83;;;;;;;;;;5091589;28;20450;-80
2022/08/05 12:31:16;;;;;;;3.13;2.30;;;;;;;;;;5091557;28;20489;-80
2022/08/05 12:33:45;;;;;;;5.13;2.87;;;;;;;;;;5091203;28;20451;-81
2022/08/05 12:36:13;;;;;;;6.63;2.80;;;;;;;;;;5092696;28;20546;-78
2022/08/05 12:38:41;;;;;;;7.00;3.40;;;;;;;;;;5091990;28;20890;-76
2022/08/05 12:41:09;;;;;;;3.50;2.90;;;;;;;;;;5094262;28;20875;-80
2022/08/05 12:43:48;;;;;;;4.43;3.10;;;;;;;;;;5094343;28;20436;-79
2022/08/05 12:46:21;;;;;;;6.80;3.10;;;;;;;;;;5086699;28;20484;-78
2022/08/05 12:48:56;;;;;;;3.50;2.77;;;;;;;;;;5088728;28;20443;-80
2022/08/05 12:51:23;;;;;;;4.07;3.53;;;;;;;;;;5091316;28;20879;-76
2022/08/05 12:53:51;;;;;;;4.20;3.13;;;;;;;;;;5091772;28;20435;-77
2022/08/05 12:56:19;;;;;;;4.70;3.40;;;;;;;;;;5092044;28;20459;-77
2022/08/05 12:58:46;;;;;;;5.50;3.60;;;;;;;;;;5092294;28;20929;-78
2022/08/05 13:01:15;;;;;;;3.97;3.30;;;;;;;;;;5092246;28;20454;-77
2022/08/05 13:03:42;;;;;;;3.63;2.97;;;;;;;;;;5093870;28;20446;-75
2022/08/05 13:06:12;;;;;;;3.70;3.00;;;;;;;;;;5092682;28;20459;-81
2022/08/05 13:08:40;;;;;;;6.47;4.10;;;;;;;;;;5087419;28;20449;-79
2022/08/05 13:11:07;;;;;;;3.93;3.20;;;;;;;;;;5088460;28;20976;-77
2022/08/05 13:13:39;;;;;;;3.77;3.00;;;;;;;;;;5091134;28;20462;-79
2022/08/05 13:16:12;;;;;;;5.10;4.60;;;;;;;;;;5090020;28;20996;-78
2022/08/05 13:18:40;;;;;;;4.90;3.93;;;;;;;;;;5091562;28;20451;-78
2022/08/05 13:21:08;;;;;;;6.67;4.57;;;;;;;;;;5092030;28;20534;-81
2022/08/05 13:23:37;;;;;;;4.80;4.30;;;;;;;;;;5090819;28;20450;-81
2022/08/05 13:26:04;;;;;;;4.17;3.77;;;;;;;;;;5093504;28;20976;-81
2022/08/05 13:28:31;;;;;;;4.40;4.10;;;;;;;;;;5090797;28;20431;-78
2022/08/05 13:30:59;;;;;;;6.10;4.27;;;;;;;;;;5078611;28;20739;-81
2022/08/05 13:33:26;;;;;;;5.47;4.97;;;;;;;;;;5088148;28;20530;-80
2022/08/05 13:35:53;;;;;;;4.83;4.07;;;;;;;;;;5091330;28;20439;-79
2022/08/05 13:38:20;;;;;;;5.37;4.80;;;;;;;;;;5091171;28;20860;-81
2022/08/05 13:40:49;;;;;;;8.03;4.20;;;;;;;;;;5092096;28;20576;-77
2022/08/05 13:43:16;;;;;;;4.50;4.03;;;;;;;;;;5095953;28;20447;-77
2022/08/05 13:45:43;;;;;;;5.97;4.67;;;;;;;;;;5095634;28;20541;-79
2022/08/05 13:48:11;;;;;;;5.27;4.37;;;;;;;;;;5097801;28;20430;-79
2022/08/05 13:50:38;;;;;;;6.10;4.27;;;;;;;;;;5095857;28;21062;-80
2022/08/05 13:53:06;;;;;;;5.20;4.43;;;;;;;;;;5091100;28;20426;-81
2022/08/05 13:55:33;;;;;;;6.33;5.50;;;;;;;;;;5091883;28;20432;-77
2022/08/05 13:58:02;;;;;;;9.07;5.20;;;;;;;;;;5094964;28;20462;-76
2022/08/05 14:00:29;;;;;;;5.73;5.13;;;;;;;;;;5095222;28;20447;-77
2022/08/05 14:02:57;;;;;;;5.40;5.00;;;;;;;;;;5095333;28;20446;-77
2022/08/05 14:05:23;;;;;;;5.40;4.90;;;;;;;;;;5095657;28;20435;-77
2022/08/05 14:07:53;;;;;;;7.20;5.20;;;;;;;;;;5095858;28;20475;-79
2022/08/05 14:10:21;;;;;;;5.57;5.03;;;;;;;;;;5097363;28;20815;-77
2022/08/05 14:12:49;;;;;;;5.17;4.70;;;;;;;;;;5094392;28;20493;-79
2022/08/05 14:15:17;;;;;;;10.93;5.23;;;;;;;;;;5089822;28;20434;-78
2022/08/05 14:17:45;;;;;;;7.73;4.50;;;;;;;;;;5091873;28;20798;-78
2022/08/05 14:20:13;;;;;;;5.20;4.60;;;;;;;;;;5093886;28;20486;-76
2022/08/05 14:22:42;;;;;;;5.33;4.43;;;;;;;;;;5094867;28;20450;-78
2022/08/05 14:25:10;;;;;;;7.47;4.67;;;;;;;;;;5094428;28;21003;-78
2022/08/05 14:27:40;;;;;;;5.10;4.30;;;;;;;;;;5095379;28;20872;-82
2022/08/05 14:30:08;;;;;;;5.60;4.10;;;;;;;;;;5095371;28;20455;-80
2022/08/05 14:32:36;;;;;;;5.23;3.20;;;;;;;;;;5096886;28;20435;-82
2022/08/05 14:35:04;;;;;;;5.47;3.70;;;;;;;;;;5095518;28;20439;-80
2022/08/05 14:37:31;;;;;;;6.57;3.60;;;;;;;;;;5090263;28;20454;-80
2022/08/05 14:39:58;;;;;;;8.57;3.40;;;;;;;;;;5091051;28;20526;-82